Time;durP1;ratioP1;P1;durP2;ratioP2;P2;SDS_P1;SDS_P2;PMS_P1;PMS_P2;Temp;Humidity;BMP_temperature;BMP_pressure;BME280_temperature;BME280_humidity;BME280_pressure;Samples;Min_cycle;Max_cycle;Signal;HPM_P1;HPM_P2
2021/08/21 00:00:55;;;;;;;5.20;4.20;;;19.60;99.90;;;;;;5092193;28;20252;-65
2021/08/21 00:03:21;;;;;;;7.63;5.07;;;19.50;99.90;;;;;;5093568;28;20170;-66
2021/08/21 00:05:46;;;;;;;7.60;3.90;;;19.50;99.90;;;;;;5095065;28;20212;-65
2021/08/21 00:08:12;;;;;;;3.90;3.50;;;19.50;99.90;;;;;;5096514;28;20166;-65
2021/08/21 00:10:38;;;;;;;3.80;3.40;;;19.50;99.90;;;;;;5096016;28;20250;-65
2021/08/21 00:13:04;;;;;;;4.57;3.83;;;19.50;99.90;;;;;;5096356;28;20409;-66
2021/08/21 00:15:29;;;;;;;5.13;3.23;;;19.50;99.90;;;;;;5094614;28;20437;-65
2021/08/21 00:17:55;;;;;;;6.03;3.73;;;19.50;99.90;;;;;;5095777;28;20289;-65
2021/08/21 00:20:22;;;;;;;3.93;3.53;;;19.50;99.90;;;;;;5095820;28;20709;-65
2021/08/21 00:22:47;;;;;;;5.47;3.33;;;19.50;99.90;;;;;;5096273;28;20447;-65
2021/08/21 00:25:13;;;;;;;4.37;3.70;;;19.50;99.90;;;;;;5095674;28;20856;-66
2021/08/21 00:27:41;;;;;;;6.37;3.60;;;19.50;99.90;;;;;;5095993;28;20173;-65
2021/08/21 00:30:07;;;;;;;5.50;3.83;;;19.50;99.90;;;;;;5095593;28;20819;-65
2021/08/21 00:32:33;;;;;;;4.90;3.17;;;19.50;99.90;;;;;;5095784;28;20478;-65
2021/08/21 00:34:59;;;;;;;4.10;3.57;;;19.50;99.90;;;;;;5095564;28;20435;-66
2021/08/21 00:37:25;;;;;;;7.63;4.30;;;19.40;99.90;;;;;;5095787;28;20405;-65
2021/08/21 00:39:50;;;;;;;6.70;3.73;;;19.40;99.90;;;;;;5095398;28;20253;-64
2021/08/21 00:42:16;;;;;;;6.07;3.53;;;19.30;99.90;;;;;;5095523;28;20184;-65
2021/08/21 00:44:42;;;;;;;8.23;3.53;;;19.30;99.90;;;;;;5095335;28;20294;-64
2021/08/21 00:47:12;;;;;;;4.00;3.27;;;19.30;99.90;;;;;;5093904;28;20454;-66
2021/08/21 00:49:43;;;;;;;4.80;3.33;;;19.20;99.90;;;;;;5095274;28;20429;-65
2021/08/21 00:52:12;;;;;;;6.00;3.77;;;19.20;99.90;;;;;;5095408;28;20449;-64
2021/08/21 00:54:39;;;;;;;8.33;4.00;;;19.10;99.90;;;;;;5095241;28;20425;-65
2021/08/21 00:57:05;;;;;;;5.60;4.07;;;19.10;99.90;;;;;;5095265;28;20409;-64
2021/08/21 00:59:35;;;;;;;7.50;4.60;;;19.10;99.90;;;;;;5095038;28;20460;-65
2021/08/21 01:02:02;;;;;;;6.90;3.93;;;19.10;99.90;;;;;;5095076;28;20432;-65
2021/08/21 01:04:30;;;;;;;4.70;3.90;;;19.00;99.90;;;;;;5095044;28;20409;-64
2021/08/21 01:06:56;;;;;;;6.70;4.20;;;19.00;99.90;;;;;;5095040;28;20405;-65
2021/08/21 01:09:22;;;;;;;5.07;4.13;;;18.90;99.90;;;;;;5094944;28;20404;-65
2021/08/21 01:11:48;;;;;;;4.07;3.67;;;18.90;99.90;;;;;;5094818;28;20172;-65
2021/08/21 01:14:14;;;;;;;6.00;3.40;;;18.90;99.90;;;;;;5094744;28;20188;-64
2021/08/21 01:16:39;;;;;;;6.13;3.50;;;18.80;99.90;;;;;;5094771;28;20779;-66
2021/08/21 01:19:07;;;;;;;5.37;4.47;;;18.80;99.90;;;;;;5094327;28;20211;-66
2021/08/21 01:21:33;;;;;;;6.07;4.00;;;18.80;99.90;;;;;;5093256;28;20250;-66
2021/08/21 01:23:58;;;;;;;4.93;4.10;;;18.70;99.90;;;;;;5094420;28;20452;-64
2021/08/21 01:26:24;;;;;;;6.17;4.33;;;18.70;99.90;;;;;;5094408;28;20275;-66
2021/08/21 01:28:50;;;;;;;5.90;3.70;;;18.60;99.90;;;;;;5094493;28;20696;-65
2021/08/21 01:31:16;;;;;;;5.00;3.37;;;18.60;99.90;;;;;;5093919;28;20203;-65
2021/08/21 01:33:42;;;;;;;5.93;4.63;;;18.60;99.90;;;;;;5095008;28;20528;-66
2021/08/21 01:36:08;;;;;;;7.47;4.30;;;18.50;99.90;;;;;;5093036;28;20582;-65
2021/08/21 01:38:34;;;;;;;7.37;4.97;;;18.50;99.90;;;;;;5094753;28;20531;-64
2021/08/21 01:41:00;;;;;;;7.37;4.03;;;18.50;99.90;;;;;;5094193;28;20465;-65
2021/08/21 01:43:25;;;;;;;9.13;4.20;;;18.50;99.90;;;;;;5094786;28;20173;-65
2021/08/21 01:45:51;;;;;;;7.27;3.87;;;18.50;99.90;;;;;;5092864;28;20428;-64
2021/08/21 01:48:18;;;;;;;7.53;4.13;;;18.40;99.90;;;;;;5094548;28;20176;-64
2021/08/21 01:50:45;;;;;;;6.33;4.73;;;18.40;99.90;;;;;;5094223;28;20322;-64
2021/08/21 01:53:13;;;;;;;5.97;3.73;;;18.40;99.90;;;;;;5094534;28;20491;-64
2021/08/21 01:55:39;;;;;;;5.40;3.57;;;18.30;99.90;;;;;;5092869;28;20987;-64
2021/08/21 01:58:05;;;;;;;5.13;3.67;;;18.30;99.90;;;;;;5094398;28;20472;-66
2021/08/21 02:00:30;;;;;;;7.23;5.00;;;18.30;99.90;;;;;;5092606;28;20782;-64
2021/08/21 02:02:57;;;;;;;4.47;3.80;;;18.20;99.90;;;;;;5094298;28;20177;-65
2021/08/21 02:05:23;;;;;;;5.50;4.03;;;18.20;99.90;;;;;;5094065;28;20669;-65
2021/08/21 02:07:50;;;;;;;5.87;4.30;;;18.20;99.90;;;;;;5092595;28;20417;-65
2021/08/21 02:10:20;;;;;;;7.77;4.90;;;18.20;99.90;;;;;;5093687;28;20523;-65
2021/08/21 02:12:46;;;;;;;6.90;4.47;;;18.20;99.90;;;;;;5094307;28;20498;-64
2021/08/21 02:15:15;;;;;;;8.07;4.13;;;18.20;99.90;;;;;;5093778;28;20420;-65
2021/08/21 02:17:41;;;;;;;5.03;4.53;;;18.10;99.90;;;;;;5093979;28;20428;-66
2021/08/21 02:20:13;;;;;;;8.13;4.10;;;18.10;99.90;;;;;;5093665;28;20425;-65
2021/08/21 02:22:41;;;;;;;5.07;4.20;;;18.10;99.90;;;;;;5092476;28;20183;-65
2021/08/21 02:25:08;;;;;;;6.33;4.50;;;18.10;99.90;;;;;;5093714;28;20472;-64
2021/08/21 02:27:38;;;;;;;8.73;5.10;;;18.10;99.90;;;;;;5094087;28;20413;-64
2021/08/21 02:30:05;;;;;;;4.83;4.03;;;18.10;99.90;;;;;;5092406;28;20985;-66
2021/08/21 02:32:31;;;;;;;4.97;4.23;;;18.10;99.90;;;;;;5092524;28;20500;-65
2021/08/21 02:34:56;;;;;;;6.07;4.33;;;18.10;99.90;;;;;;5093485;28;20985;-65
2021/08/21 02:37:22;;;;;;;6.67;4.20;;;18.10;99.90;;;;;;5093941;28;20212;-65
2021/08/21 02:39:48;;;;;;;5.80;4.87;;;18.10;99.90;;;;;;5093466;28;20227;-65
2021/08/21 02:42:14;;;;;;;7.03;4.87;;;18.10;99.90;;;;;;5096996;28;20176;-65
2021/08/21 02:44:40;;;;;;;5.07;4.17;;;18.10;99.90;;;;;;5097815;28;20424;-65
2021/08/21 02:47:06;;;;;;;10.80;4.40;;;18.10;99.90;;;;;;5097505;28;20955;-66
2021/08/21 02:49:33;;;;;;;5.73;4.67;;;18.10;99.90;;;;;;5097550;28;20448;-65
2021/08/21 02:51:59;;;;;;;4.87;4.00;;;18.10;99.90;;;;;;5096307;28;20172;-64
2021/08/21 02:54:24;;;;;;;6.20;5.50;;;18.10;99.90;;;;;;5097396;28;20743;-65
2021/08/21 02:56:50;;;;;;;7.60;4.83;;;18.10;99.90;;;;;;5097624;28;20225;-65
2021/08/21 02:59:15;;;;;;;6.40;4.40;;;18.00;99.90;;;;;;5097238;28;20208;-65
2021/08/21 03:01:41;;;;;;;4.93;4.40;;;18.00;99.90;;;;;;5097368;28;20176;-64
2021/08/21 03:04:07;;;;;;;5.17;4.67;;;18.00;99.90;;;;;;5097205;28;20173;-65
2021/08/21 03:06:32;;;;;;;4.33;3.93;;;18.00;99.90;;;;;;5097153;28;20213;-64
2021/08/21 03:08:58;;;;;;;6.90;5.77;;;17.90;99.90;;;;;;5095829;28;20176;-66
2021/08/21 03:11:23;;;;;;;5.30;4.20;;;17.80;99.90;;;;;;5097086;28;20196;-64
2021/08/21 03:13:49;;;;;;;7.93;4.67;;;17.80;99.90;;;;;;5097173;28;20747;-64
2021/08/21 03:16:15;;;;;;;5.93;4.73;;;17.80;99.90;;;;;;5095733;28;20662;-65
2021/08/21 03:18:40;;;;;;;5.80;5.00;;;17.80;99.90;;;;;;5095887;28;20220;-65
2021/08/21 03:21:06;;;;;;;6.50;5.20;;;17.70;99.90;;;;;;5096898;28;20204;-65
2021/08/21 03:23:31;;;;;;;6.30;4.90;;;17.70;99.90;;;;;;5095687;28;20224;-65
2021/08/21 03:25:58;;;;;;;5.37;4.20;;;17.70;99.90;;;;;;5096864;28;20212;-65
2021/08/21 03:28:24;;;;;;;5.70;4.50;;;17.70;99.90;;;;;;5097345;28;20204;-64
2021/08/21 03:30:50;;;;;;;4.97;4.43;;;17.70;99.90;;;;;;5096779;28;20444;-65
2021/08/21 03:33:16;;;;;;;8.33;5.10;;;17.70;99.90;;;;;;5097171;28;20172;-64
2021/08/21 03:35:43;;;;;;;7.17;5.87;;;17.70;99.90;;;;;;5096654;28;20192;-65
2021/08/21 03:38:08;;;;;;;5.43;4.93;;;17.70;99.90;;;;;;5096704;28;20467;-64
2021/08/21 03:40:34;;;;;;;7.50;4.87;;;17.70;99.90;;;;;;5096514;28;20433;-65
2021/08/21 03:43:00;;;;;;;7.00;5.23;;;17.70;99.90;;;;;;5095516;28;20640;-65
2021/08/21 03:45:26;;;;;;;5.50;4.67;;;17.70;99.90;;;;;;5096497;28;20192;-64
2021/08/21 03:47:51;;;;;;;9.37;5.37;;;17.70;99.90;;;;;;5096868;28;20177;-65
2021/08/21 03:50:17;;;;;;;7.00;5.10;;;17.70;99.90;;;;;;5096242;28;20200;-66
2021/08/21 03:52:43;;;;;;;5.63;5.07;;;17.70;99.90;;;;;;5095964;28;20185;-65
2021/08/21 03:55:09;;;;;;;5.27;4.70;;;17.70;99.90;;;;;;5096329;28;20205;-65
2021/08/21 03:57:35;;;;;;;7.33;5.77;;;17.70;99.90;;;;;;5096577;28;20613;-64
2021/08/21 04:00:02;;;;;;;8.43;5.40;;;17.70;99.90;;;;;;5096190;28;20455;-65
2021/08/21 04:02:28;;;;;;;6.80;5.00;;;17.60;99.90;;;;;;5096420;28;20985;-65
2021/08/21 04:04:53;;;;;;;6.70;4.93;;;17.60;99.90;;;;;;5096224;28;20471;-65
2021/08/21 04:07:19;;;;;;;6.40;5.80;;;17.60;99.90;;;;;;5094863;28;20208;-65
2021/08/21 04:09:45;;;;;;;8.70;5.20;;;17.60;99.90;;;;;;5096022;28;20205;-65
2021/08/21 04:12:10;;;;;;;5.87;4.67;;;17.70;99.90;;;;;;5096148;28;20255;-65
2021/08/21 04:14:36;;;;;;;8.90;5.63;;;17.70;99.90;;;;;;5096047;28;20204;-64
2021/08/21 04:17:02;;;;;;;9.20;4.80;;;17.80;99.90;;;;;;5095996;28;20230;-66
2021/08/21 04:19:27;;;;;;;6.80;5.83;;;17.80;99.90;;;;;;5094485;28;20605;-64
2021/08/21 04:21:53;;;;;;;6.53;5.03;;;17.90;99.90;;;;;;5096006;28;20405;-64
2021/08/21 04:24:19;;;;;;;9.20;5.43;;;17.90;99.90;;;;;;5094223;28;20232;-64
2021/08/21 04:26:44;;;;;;;10.17;5.43;;;18.00;99.90;;;;;;5095803;28;20618;-66
2021/08/21 04:29:13;;;;;;;6.90;5.50;;;18.00;99.90;;;;;;5095718;28;20515;-65
2021/08/21 04:31:39;;;;;;;6.40;5.70;;;18.00;99.90;;;;;;5094372;28;20191;-66
2021/08/21 04:34:04;;;;;;;6.63;4.57;;;18.10;99.90;;;;;;5095582;28;20409;-65
2021/08/21 04:36:30;;;;;;;6.80;6.10;;;18.10;99.90;;;;;;5095355;28;20771;-64
2021/08/21 04:38:56;;;;;;;9.13;5.90;;;18.20;99.90;;;;;;5095339;28;20196;-66
2021/08/21 04:41:21;;;;;;;6.67;5.50;;;18.20;99.90;;;;;;5095263;28;20486;-65
2021/08/21 04:43:47;;;;;;;6.33;5.43;;;18.30;99.90;;;;;;5095440;28;20177;-66
2021/08/21 04:46:13;;;;;;;7.60;6.67;;;18.30;99.90;;;;;;5095231;28;20719;-65
2021/08/21 04:48:39;;;;;;;8.23;6.20;;;18.30;99.90;;;;;;5095227;28;20210;-64
2021/08/21 04:51:04;;;;;;;6.30;5.70;;;18.40;99.90;;;;;;5095179;28;20197;-64
2021/08/21 04:53:30;;;;;;;6.67;4.90;;;18.50;99.90;;;;;;5095832;28;20417;-64
2021/08/21 04:55:55;;;;;;;8.10;5.80;;;18.50;99.90;;;;;;5095084;28;20280;-64
2021/08/21 04:58:21;;;;;;;9.40;7.10;;;18.60;99.90;;;;;;5094004;28;20201;-64
2021/08/21 05:00:46;;;;;;;5.70;5.00;;;18.70;99.90;;;;;;5093707;28;20203;-65
2021/08/21 05:03:12;;;;;;;9.60;5.53;;;18.70;99.90;;;;;;5095406;28;20526;-65
2021/08/21 05:05:38;;;;;;;8.63;5.63;;;18.70;99.90;;;;;;5093897;28;20231;-65
2021/08/21 05:08:03;;;;;;;7.50;5.70;;;18.80;99.90;;;;;;5095262;28;20298;-65
2021/08/21 05:10:29;;;;;;;6.63;6.03;;;18.90;99.90;;;;;;5094821;28;20227;-65
2021/08/21 05:12:55;;;;;;;8.67;6.57;;;18.90;99.90;;;;;;5093614;28;20185;-65
2021/08/21 05:15:20;;;;;;;6.80;6.00;;;19.00;99.90;;;;;;5094770;28;20196;-64
2021/08/21 05:17:48;;;;;;;7.40;6.13;;;19.00;99.90;;;;;;5095034;28;20210;-64
2021/08/21 05:20:27;;;;;;;9.37;6.03;;;19.10;99.90;;;;;;5093308;28;20201;-66
2021/08/21 05:23:08;;;;;;;7.83;5.73;;;19.10;99.90;;;;;;5094644;28;20455;-65
2021/08/21 05:25:44;;;;;;;10.47;5.50;;;19.20;99.90;;;;;;5093557;28;20475;-65
2021/08/21 05:28:10;;;;;;;7.17;6.10;;;19.30;99.90;;;;;;5095070;28;20788;-65
2021/08/21 05:30:38;;;;;;;9.27;7.10;;;19.30;99.90;;;;;;5093103;28;20435;-66
2021/08/21 05:33:08;;;;;;;8.93;6.87;;;19.50;99.90;;;;;;5094857;28;20413;-65
2021/08/21 05:35:33;;;;;;;13.10;6.20;;;19.60;99.90;;;;;;5094517;28;20854;-65
2021/08/21 05:37:59;;;;;;;7.27;5.90;;;19.70;99.90;;;;;;5094166;28;20457;-65
2021/08/21 05:40:24;;;;;;;9.60;5.13;;;19.80;99.90;;;;;;5094332;28;20644;-65
2021/08/21 05:42:50;;;;;;;8.03;6.13;;;19.80;99.90;;;;;;5094688;28;20196;-65
2021/08/21 05:45:15;;;;;;;7.00;6.30;;;19.90;99.90;;;;;;5094313;28;20636;-65
2021/08/21 05:47:41;;;;;;;12.00;6.40;;;20.00;99.90;;;;;;5094552;28;20173;-65
2021/08/21 05:50:07;;;;;;;7.63;6.50;;;20.10;99.90;;;;;;5094214;28;20251;-65
2021/08/21 05:52:33;;;;;;;10.20;5.80;;;20.10;99.90;;;;;;5092963;28;20175;-65
2021/08/21 05:54:59;;;;;;;7.07;5.33;;;20.20;99.90;;;;;;5094065;28;20782;-65
2021/08/21 05:57:24;;;;;;;9.53;6.50;;;20.30;99.90;;;;;;5092990;28;20183;-65
2021/08/21 05:59:50;;;;;;;7.20;5.63;;;20.40;99.90;;;;;;5093872;28;20301;-65
2021/08/21 06:02:15;;;;;;;7.67;6.50;;;20.50;99.90;;;;;;5126827;27;20187;-65
2021/08/21 06:04:41;;;;;;;6.63;5.63;;;20.50;99.90;;;;;;5093945;28;20196;-65
2021/08/21 06:07:06;;;;;;;7.23;6.00;;;20.70;99.90;;;;;;5094190;28;20296;-66
2021/08/21 06:09:32;;;;;;;8.27;5.70;;;20.80;99.90;;;;;;5093994;28;20243;-66
2021/08/21 06:11:57;;;;;;;8.30;6.20;;;20.80;99.90;;;;;;5093919;28;20178;-65
2021/08/21 06:14:23;;;;;;;7.50;6.00;;;20.90;99.90;;;;;;5093785;28;20183;-65
2021/08/21 06:16:48;;;;;;;6.60;5.27;;;21.00;99.90;;;;;;5093528;28;20178;-65
2021/08/21 06:19:14;;;;;;;8.73;6.00;;;21.00;99.90;;;;;;5092349;28;20235;-65
2021/08/21 06:21:42;;;;;;;6.87;5.33;;;21.10;99.90;;;;;;5093803;28;20536;-65
2021/08/21 06:24:08;;;;;;;12.13;6.33;;;21.10;99.90;;;;;;5092411;28;20234;-66
2021/08/21 06:26:33;;;;;;;7.00;5.90;;;21.20;99.90;;;;;;5093627;28;20529;-65
2021/08/21 06:28:59;;;;;;;6.60;5.70;;;21.30;99.90;;;;;;5093716;28;20176;-64
2021/08/21 06:31:24;;;;;;;6.10;5.60;;;21.40;99.90;;;;;;5093515;28;20233;-65
2021/08/21 06:33:50;;;;;;;6.20;5.20;;;21.50;99.90;;;;;;5093779;28;20650;-65
2021/08/21 06:36:16;;;;;;;7.23;4.93;;;21.60;99.90;;;;;;5093608;28;20199;-65
2021/08/21 06:38:41;;;;;;;10.90;5.57;;;21.60;99.90;;;;;;5094029;28;20215;-65
2021/08/21 06:41:07;;;;;;;8.40;5.50;;;21.70;99.90;;;;;;5092150;28;20215;-65
2021/08/21 06:43:32;;;;;;;6.07;4.97;;;21.80;99.90;;;;;;5093558;28;20180;-65
2021/08/21 06:45:58;;;;;;;5.67;5.07;;;21.90;99.90;;;;;;5100954;28;20279;-65
2021/08/21 06:48:23;;;;;;;8.33;5.50;;;22.00;99.90;;;;;;5112887;28;20667;-67
2021/08/21 06:50:49;;;;;;;9.73;4.90;;;22.00;99.90;;;;;;5113769;28;20673;-65
2021/08/21 06:53:15;;;;;;;5.10;4.60;;;22.10;99.90;;;;;;5114275;28;20206;-65
2021/08/21 06:55:41;;;;;;;5.90;4.93;;;22.20;99.90;;;;;;5113707;28;20195;-65
2021/08/21 06:58:06;;;;;;;6.33;5.50;;;22.40;99.90;;;;;;5112698;28;20256;-66
2021/08/21 07:00:33;;;;;;;6.13;5.50;;;22.40;99.90;;;;;;5113729;28;20420;-66
2021/08/21 07:02:58;;;;;;;8.30;5.23;;;22.60;99.90;;;;;;5112839;28;20191;-65
2021/08/21 07:05:24;;;;;;;5.80;4.90;;;22.60;99.90;;;;;;5113700;28;20428;-66
2021/08/21 07:07:49;;;;;;;5.00;4.50;;;22.80;99.90;;;;;;5112635;28;20211;-65
2021/08/21 07:10:15;;;;;;;4.87;4.37;;;22.90;99.90;;;;;;5113587;28;20602;-65
2021/08/21 07:12:41;;;;;;;5.17;4.53;;;23.00;99.90;;;;;;5113956;28;20222;-65
2021/08/21 07:15:07;;;;;;;5.30;4.80;;;23.10;99.90;;;;;;5113652;28;20221;-65
2021/08/21 07:17:33;;;;;;;4.13;3.73;;;23.20;99.90;;;;;;5112242;28;20484;-65
2021/08/21 07:19:59;;;;;;;4.63;3.90;;;23.30;99.90;;;;;;5113524;28;20475;-66
2021/08/21 07:22:24;;;;;;;4.63;4.13;;;23.50;99.90;;;;;;5113789;28;20419;-65
2021/08/21 07:24:50;;;;;;;6.10;3.90;;;23.60;99.90;;;;;;5113612;28;20228;-65
2021/08/21 07:27:16;;;;;;;4.77;3.53;;;23.70;99.90;;;;;;5113705;28;20180;-66
2021/08/21 07:29:41;;;;;;;5.90;3.63;;;23.80;99.90;;;;;;5117142;28;20684;-65
2021/08/21 07:32:07;;;;;;;4.10;3.27;;;23.90;99.90;;;;;;5116060;28;20176;-65
2021/08/21 07:34:33;;;;;;;4.93;4.13;;;24.00;99.90;;;;;;5117214;28;20199;-65
2021/08/21 07:36:59;;;;;;;7.73;5.10;;;24.10;99.90;;;;;;5117153;28;20447;-65
2021/08/21 07:39:24;;;;;;;11.37;3.70;;;24.20;99.90;;;;;;5117020;28;20260;-65
2021/08/21 07:41:50;;;;;;;5.73;3.70;;;24.30;99.90;;;;;;5115835;28;20180;-65
2021/08/21 07:44:15;;;;;;;3.70;3.40;;;24.40;99.90;;;;;;5115658;28;20180;-65
2021/08/21 07:46:41;;;;;;;6.67;3.23;;;24.60;99.90;;;;;;5116956;28;20174;-67
2021/08/21 07:49:06;;;;;;;3.80;3.47;;;24.70;99.90;;;;;;5116883;28;20218;-67
2021/08/21 07:51:32;;;;;;;5.47;3.70;;;24.70;99.90;;;;;;5116704;28;20208;-65
2021/08/21 07:53:58;;;;;;;5.87;4.10;;;24.80;99.90;;;;;;5116869;28;20544;-66
2021/08/21 07:56:23;;;;;;;5.30;3.97;;;24.90;99.90;;;;;;5115212;28;20677;-66
2021/08/21 07:58:49;;;;;;;4.40;3.90;;;25.00;99.90;;;;;;5125760;27;20213;-66
2021/08/21 08:01:14;;;;;;;7.50;4.00;;;25.00;99.90;;;;;;5134924;27;20195;-65
2021/08/21 08:03:40;;;;;;;4.47;3.30;;;25.10;99.90;;;;;;5133850;27;20185;-65
2021/08/21 08:06:05;;;;;;;4.50;3.70;;;25.10;99.90;;;;;;5134953;27;20246;-65
2021/08/21 08:08:31;;;;;;;4.87;4.10;;;25.20;99.90;;;;;;5135486;27;20680;-66
2021/08/21 08:10:57;;;;;;;4.43;4.00;;;25.20;99.90;;;;;;5134883;27;20557;-66
2021/08/21 08:13:22;;;;;;;3.97;3.63;;;25.30;99.90;;;;;;5135260;27;20182;-65
2021/08/21 08:15:49;;;;;;;5.50;3.90;;;25.40;99.90;;;;;;5136076;27;20236;-65
2021/08/21 08:18:15;;;;;;;3.40;3.10;;;25.40;99.90;;;;;;5137149;27;20208;-66
2021/08/21 08:20:41;;;;;;;4.30;3.70;;;25.50;99.90;;;;;;5136805;27;20418;-67
2021/08/21 08:23:07;;;;;;;6.83;4.10;;;25.50;99.90;;;;;;5136257;27;20182;-65
2021/08/21 08:25:32;;;;;;;5.53;4.27;;;25.50;99.90;;;;;;5136700;27;20236;-66
2021/08/21 08:27:58;;;;;;;4.20;3.70;;;25.60;99.90;;;;;;5135490;27;20419;-65
2021/08/21 08:30:24;;;;;;;4.97;3.80;;;25.60;99.80;;;;;;5135357;27;20206;-66
2021/08/21 08:32:49;;;;;;;4.73;4.33;;;25.60;99.80;;;;;;5136945;27;20174;-65
2021/08/21 08:35:15;;;;;;;4.70;4.20;;;25.70;99.70;;;;;;5136434;27;20203;-65
2021/08/21 08:37:41;;;;;;;5.47;4.23;;;25.70;99.70;;;;;;5136443;27;20528;-67
2021/08/21 08:40:10;;;;;;;6.20;4.27;;;25.80;99.70;;;;;;5136118;27;20629;-65
2021/08/21 08:42:39;;;;;;;7.63;3.57;;;25.90;99.40;;;;;;5136785;27;20421;-65
2021/08/21 08:45:05;;;;;;;4.47;4.03;;;26.00;99.30;;;;;;5134960;27;20522;-66
2021/08/21 08:47:31;;;;;;;3.80;3.50;;;26.20;99.10;;;;;;5136585;27;20753;-65
2021/08/21 08:50:03;;;;;;;5.57;4.03;;;26.30;98.80;;;;;;5136152;27;20434;-66
2021/08/21 08:52:29;;;;;;;4.00;3.63;;;26.40;98.90;;;;;;5136607;27;20174;-66
2021/08/21 08:54:54;;;;;;;4.40;3.77;;;26.50;98.80;;;;;;5136106;27;20431;-66
2021/08/21 08:57:38;;;;;;;4.73;3.60;;;26.50;98.40;;;;;;5136239;27;20964;-66
2021/08/21 09:00:09;;;;;;;4.20;3.73;;;26.60;98.10;;;;;;5135922;27;20698;-65
2021/08/21 09:02:40;;;;;;;4.33;3.73;;;26.70;97.90;;;;;;5132054;27;20458;-65
2021/08/21 09:05:12;;;;;;;3.90;3.33;;;26.80;97.50;;;;;;5114051;28;20847;-65
2021/08/21 09:07:42;;;;;;;4.13;3.53;;;27.00;97.30;;;;;;5113416;28;20403;-66
2021/08/21 09:10:20;;;;;;;4.47;3.23;;;27.10;97.10;;;;;;5113104;28;20424;-65
2021/08/21 09:12:47;;;;;;;4.10;3.57;;;27.30;97.00;;;;;;5113424;28;20406;-66
2021/08/21 09:15:27;;;;;;;4.33;3.93;;;27.40;96.40;;;;;;5111586;28;20473;-66
2021/08/21 09:18:02;;;;;;;3.93;3.23;;;27.50;96.40;;;;;;5113361;28;20411;-66
2021/08/21 09:20:28;;;;;;;4.10;3.70;;;27.60;96.20;;;;;;5146050;27;20815;-65
2021/08/21 09:23:19;;;;;;;4.60;3.77;;;27.60;95.80;;;;;;5114964;28;20472;-66
2021/08/21 09:25:47;;;;;;;4.20;3.77;;;27.70;95.60;;;;;;5115083;28;20442;-66
2021/08/21 09:28:23;;;;;;;3.93;3.40;;;27.80;95.50;;;;;;5115389;28;20415;-65
2021/08/21 09:31:05;;;;;;;3.67;3.37;;;27.80;95.40;;;;;;5113552;28;20497;-67
2021/08/21 09:33:32;;;;;;;4.47;4.07;;;27.90;93.90;;;;;;5115497;28;20412;-65
2021/08/21 09:35:58;;;;;;;3.83;3.40;;;28.00;94.30;;;;;;5148001;27;20472;-65
2021/08/21 09:38:29;;;;;;;4.20;3.80;;;28.00;94.50;;;;;;5115330;28;20506;-67
2021/08/21 09:41:07;;;;;;;5.57;3.97;;;28.10;94.60;;;;;;5147845;27;20431;-66
2021/08/21 09:43:34;;;;;;;4.43;3.97;;;28.10;94.50;;;;;;5114767;28;20415;-66
2021/08/21 09:46:07;;;;;;;4.20;3.80;;;28.10;94.10;;;;;;5114641;27;20519;-66
2021/08/21 09:48:32;;;;;;;3.80;3.50;;;28.20;93.60;;;;;;5115199;28;20491;-66
2021/08/21 09:50:58;;;;;;;4.10;3.70;;;28.20;94.20;;;;;;5113986;28;20523;-66
2021/08/21 09:53:35;;;;;;;4.30;3.90;;;28.30;94.20;;;;;;5147898;27;20396;-66
2021/08/21 09:56:10;;;;;;;4.27;3.80;;;28.30;93.50;;;;;;5147521;27;20206;-67
2021/08/21 09:58:36;;;;;;;3.87;3.40;;;28.40;93.00;;;;;;5114946;28;20968;-65
2021/08/21 10:01:05;;;;;;;3.47;3.13;;;28.40;93.10;;;;;;5114359;28;20469;-65
2021/08/21 10:03:31;;;;;;;4.10;3.70;;;28.40;92.60;;;;;;5114730;28;20168;-65
2021/08/21 10:05:57;;;;;;;3.50;3.20;;;28.40;93.50;;;;;;5114208;28;20432;-65
2021/08/21 10:08:27;;;;;;;8.67;3.77;;;28.40;93.40;;;;;;5114799;28;20481;-67
2021/08/21 10:10:54;;;;;;;4.10;3.70;;;28.40;93.10;;;;;;5114234;28;20206;-67
2021/08/21 10:13:30;;;;;;;3.93;3.53;;;28.50;93.50;;;;;;5114646;28;20444;-65
2021/08/21 10:15:57;;;;;;;4.07;3.40;;;28.60;92.60;;;;;;5114214;28;20480;-67
2021/08/21 10:18:24;;;;;;;3.97;3.27;;;28.60;92.50;;;;;;5147479;27;21040;-67
2021/08/21 10:20:50;;;;;;;4.60;3.50;;;28.70;92.10;;;;;;5114112;28;20849;-66
2021/08/21 10:23:19;;;;;;;3.80;3.50;;;28.70;92.10;;;;;;5147138;27;20424;-65
2021/08/21 10:25:58;;;;;;;4.00;3.50;;;28.70;92.20;;;;;;5114155;28;20462;-65
2021/08/21 10:28:35;;;;;;;4.27;3.87;;;28.70;92.40;;;;;;5147387;27;20469;-65
2021/08/21 10:31:01;;;;;;;4.03;3.67;;;28.70;92.30;;;;;;5114053;28;20522;-65
2021/08/21 10:33:29;;;;;;;5.30;4.20;;;28.70;92.10;;;;;;5114638;28;20500;-66
2021/08/21 10:35:56;;;;;;;4.03;3.50;;;28.70;92.20;;;;;;5112720;28;20207;-66
2021/08/21 10:38:33;;;;;;;4.07;3.73;;;28.60;92.10;;;;;;5147219;27;20574;-65
2021/08/21 10:41:25;;;;;;;4.67;4.27;;;28.60;92.00;;;;;;5147090;27;20497;-65
2021/08/21 10:43:53;;;;;;;5.97;4.10;;;28.60;91.80;;;;;;5108218;28;20431;-66
2021/08/21 10:46:39;;;;;;;4.40;4.00;;;28.60;91.70;;;;;;5112595;28;20804;-65
2021/08/21 10:49:06;;;;;;;4.90;4.40;;;28.60;91.80;;;;;;5106372;28;20433;-66
2021/08/21 10:51:43;;;;;;;5.60;4.23;;;28.50;91.70;;;;;;5146900;27;20429;-66
2021/08/21 10:54:27;;;;;;;4.27;3.90;;;28.50;91.80;;;;;;5113793;28;20443;-66
2021/08/21 10:56:58;;;;;;;4.50;4.10;;;28.40;92.00;;;;;;5113878;28;20441;-66
2021/08/21 10:59:44;;;;;;;4.00;3.70;;;28.40;92.00;;;;;;5112474;28;20508;-66
2021/08/21 11:02:25;;;;;;;4.23;3.83;;;28.40;91.70;;;;;;5114019;28;20416;-66
2021/08/21 11:04:52;;;;;;;5.77;3.80;;;28.30;91.90;;;;;;5150889;27;20539;-65
2021/08/21 11:07:29;;;;;;;4.53;4.10;;;28.30;92.00;;;;;;5117907;28;20826;-66
2021/08/21 11:10:17;;;;;;;5.20;4.47;;;28.30;92.10;;;;;;5117563;28;20420;-67
2021/08/21 11:12:46;;;;;;;4.33;3.93;;;28.30;92.10;;;;;;5118008;28;20424;-65
2021/08/21 11:15:16;;;;;;;7.37;4.43;;;28.20;92.20;;;;;;5117510;27;20429;-66
2021/08/21 11:17:42;;;;;;;4.70;3.97;;;28.20;92.10;;;;;;5117505;27;20396;-66
2021/08/21 11:20:24;;;;;;;3.60;3.30;;;28.30;92.20;;;;;;5117350;28;20871;-65
2021/08/21 11:23:20;;;;;;;4.07;3.70;;;28.30;92.10;;;;;;5116399;28;20450;-66
2021/08/21 11:25:46;;;;;;;4.40;3.77;;;28.40;92.00;;;;;;5102983;28;20448;-66
2021/08/21 11:28:20;;;;;;;5.40;3.63;;;28.50;92.00;;;;;;5117238;28;20429;-66
2021/08/21 11:31:10;;;;;;;5.33;4.53;;;28.60;91.70;;;;;;5117365;28;20568;-66
2021/08/21 11:33:40;;;;;;;4.43;3.90;;;28.60;91.70;;;;;;5116266;28;20455;-66
2021/08/21 11:36:08;;;;;;;6.37;4.20;;;28.70;91.70;;;;;;5117174;28;20435;-66
2021/08/21 11:38:35;;;;;;;4.13;3.77;;;28.70;91.60;;;;;;5117627;27;20462;-66
2021/08/21 11:41:11;;;;;;;4.23;3.83;;;28.80;91.40;;;;;;5116942;28;20795;-66
2021/08/21 11:43:41;;;;;;;5.47;3.80;;;28.90;90.90;;;;;;5117199;28;20423;-65
2021/08/21 11:46:07;;;;;;;3.83;3.40;;;29.00;90.80;;;;;;5116982;28;20430;-66
2021/08/21 11:48:35;;;;;;;4.70;3.73;;;29.10;90.90;;;;;;5117386;28;20408;-66
2021/08/21 11:51:03;;;;;;;4.07;3.60;;;29.20;90.90;;;;;;5116884;28;20421;-66
2021/08/21 11:53:31;;;;;;;3.70;3.40;;;29.20;90.70;;;;;;5116757;28;20415;-66
2021/08/21 11:55:59;;;;;;;5.37;3.93;;;29.20;89.90;;;;;;5116721;28;20539;-67
2021/08/21 11:58:29;;;;;;;3.70;3.13;;;29.30;89.00;;;;;;5117295;28;20464;-67
2021/08/21 12:01:02;;;;;;;4.17;3.77;;;29.30;88.60;;;;;;5116654;27;20429;-66
2021/08/21 12:06:26;;;;;;;4.30;3.57;;;29.50;88.40;;;;;;5092544;28;20503;-67
2021/08/21 12:09:05;;;;;;;3.87;3.30;;;29.50;87.80;;;;;;5116619;28;20861;-67
2021/08/21 12:11:30;;;;;;;4.33;3.20;;;29.60;86.80;;;;;;5116517;28;20780;-66
2021/08/21 12:14:00;;;;;;;3.60;3.30;;;29.60;88.10;;;;;;5115862;28;20406;-67
2021/08/21 12:16:28;;;;;;;4.73;3.70;;;29.50;88.00;;;;;;5116382;28;20650;-66
2021/08/21 12:18:56;;;;;;;3.40;3.00;;;29.50;88.80;;;;;;5149439;27;20484;-66
2021/08/21 12:21:22;;;;;;;4.10;3.67;;;29.40;89.20;;;;;;5116192;28;20778;-65
2021/08/21 12:23:51;;;;;;;3.90;3.40;;;29.30;89.20;;;;;;5149422;27;20478;-67
2021/08/21 12:26:34;;;;;;;4.67;3.83;;;29.30;89.50;;;;;;5116154;28;20453;-67
2021/08/21 12:29:00;;;;;;;3.73;3.43;;;29.20;89.80;;;;;;5116211;28;20405;-65
2021/08/21 12:31:36;;;;;;;5.07;3.50;;;29.20;89.90;;;;;;5115990;28;20427;-66
2021/08/21 12:34:03;;;;;;;4.73;3.20;;;29.10;89.70;;;;;;5116071;28;20400;-67
2021/08/21 12:36:28;;;;;;;3.80;3.20;;;29.10;90.00;;;;;;5114586;28;20439;-66
2021/08/21 12:39:03;;;;;;;3.50;3.20;;;29.00;90.00;;;;;;5115968;28;20452;-66
2021/08/21 12:41:30;;;;;;;4.60;3.30;;;29.00;90.20;;;;;;5115877;28;20604;-65
2021/08/21 12:44:14;;;;;;;4.43;3.50;;;28.90;90.10;;;;;;5115968;28;20404;-66
2021/08/21 12:46:50;;;;;;;4.33;3.67;;;28.80;90.10;;;;;;5116014;27;20390;-66
2021/08/21 12:49:16;;;;;;;4.03;3.07;;;28.80;90.10;;;;;;5115696;28;20894;-67
2021/08/21 12:51:43;;;;;;;3.97;3.57;;;28.80;90.10;;;;;;5114461;28;20421;-66